Share

Dumont, IA (50625)

Beeds Addition (KIAHAMPT3) Elev 1135 ft | 42.74 °N, 93.20 °W | Change Station

Current weather conditions updated 1 second ago

Overcast
Overcast
42.8 °F
Feels Like 36 °F
N
14.5
Wind Variable Wind from NW
Gusts 14.5 mph
Sunrise 6:28 AM
Sunset 7:55 PM
Moon Waning Gibbous

Tomorrow is forecast to be Much Cooler than today.

Pressure 29.86 in
Visibility 10.0 miles
Clouds Overcast 4600 ft
Windchill 36 °F
Dew Point 42 °F
Humidity 99%
Rainfall 0.02 in
Snow Depth Not available.
UV 0 out of 16
Pollen 8.30 out of 12
Air Quality Not available.
Flu Activity Sporadic
METAR KIFA 170415Z AUTO 26012KT 10SM OVC046 06/05 A2986 RMK AO2 T00630048

More Conditions Fewer Conditions

Pressure 29.86 in
Visibility 10.0 miles
Clouds Overcast 4600 ft
Windchill 36 °F
Dew Point 42 °F
Humidity 99%
Rainfall 0.02 in
Snow Depth Not available.
UV 0 out of 16
Pollen 8.30 out of 12
Air Quality Not available.
Flu Activity Sporadic
METAR KIFA 170415Z AUTO 26012KT 10SM OVC046 06/05 A2986 RMK AO2 T00630048

More Conditions Fewer Conditions

10-Day Forecast

Almanac

Astronomy

Apr. 16, 2014 Rise Set
Actual Time 6:28 AM CDT 7:55 PM CDT
Civil Twilight 5:59 AM CDT 8:24 PM CDT
Nautical Twilight 5:23 AM CDT 9:00 PM CDT
Astronomical Twilight 4:46 AM CDT 9:38 PM CDT
Moon 9:41 PM CDT (4/16) 7:15 AM CDT (4/16)
Length of Visible Light 14h 25m
Length of Day
13h 26m
Tomorrow will be 2m 45s longer.
Waning Gibbous, 96% of the Moon is Illuminated
Apr 17
Waning Gibbous
Apr 22
Last Quarter
Apr 29
New
May 6
First Quarter
May 14
Full

Yesterday's Extremes

State Highs State Lows

Community

  • symphony in blue....
    symphony in blue....
  • Dawn Surprise
    Dawn Surprise
  • Yucca delight
    Yucca delight
  • Sunset inside of the Ocean
    Sunset inside of the Ocean
  • Lunar eclipse 15 April 2014
    Lunar eclipse 15 April 2014

WunderPhotos

Upload Photos

1,701,855 photos uploaded!

WunderBlogs® & News

Nearby

Snow Depth

Station Depth Elevation
No new snow has been reported.

Coastal Water Temperatures

Place Temperature
No Stations Reporting

Earthquake Activity

City Distance Mag. Time & Date
No recent earthquake activity has been reported nearby.
Minimum magnitude displayed is 2.5.

Nearby Weather Stations

Station Location Temp. Windchill Dew Point Humidity Wind Precip. Elev Updated Type
Beeds Addition, Hampton, IA 42.8 °F 36 °F 42 °F 99% NW  at  14.5 mph 0.00 in / hr 1135 ft 11:35 PM CDT Rapid Fire
Jensen Farm, Iowa Falls, IA 42.0 °F 36 °F 41 °F 96% West  at  11.0 mph 0.00 in / hr 1142 ft 11:35 PM CDT Rapid Fire
Wartburg College Observatory, Waverly, IA 50.0 °F 44 °F 34 °F 55% SSE  at  19.6 mph 0.00 in / hr 955 ft 11:35 PM CDT Rapid Fire

Show More Stations Show Fewer Stations

What do you think?

We're not finished. Please let us know what you like, what you don't like, and what you are still missing.